Terminal Aerodrome Forecast
Issued by NWS

Home | Current Version | Previous Version | Text Only | Print | Product List | Glossary On
Versions: 1 2 3 4 5 6 7 8 9 10 11 12 13 14 15 16 17 18 19 20
000
FTUS42 KFFC 280536
TAFFTY
TAF
KFTY 280536Z 2806/2906 34010KT P6SM BKN025
      TEMPO 2806/2809 SCT025
     FM280900 34007KT P6SM FEW030
     FM281600 35005KT P6SM SKC
     FM282000 13004KT P6SM SKC
     FM290000 00000KT P6SM SKC=

USA.gov is the U.S. government's official web portal to all federal, state and local government web resources and services.